createdAt,value
2023-03-21T00:00:59.601Z,9.67
2023-03-21T00:06:08.731Z,9.86
2023-03-21T00:11:14.428Z,9.27
2023-03-21T00:16:26.369Z,9.20
2023-03-21T00:21:51.888Z,9.12
2023-03-21T00:27:10.693Z,9.17
2023-03-21T00:32:22.206Z,9.09
2023-03-21T00:37:24.059Z,9.26
2023-03-21T00:42:26.395Z,9.56
2023-03-21T00:47:28.006Z,9.65
2023-03-21T00:52:40.146Z,9.67
2023-03-21T00:57:45.305Z,9.71
2023-03-21T01:03:04.270Z,9.73
2023-03-21T01:08:20.619Z,9.75
2023-03-21T01:13:25.515Z,9.76
2023-03-21T01:18:28.398Z,9.76
2023-03-21T01:23:29.875Z,9.74
2023-03-21T01:28:31.840Z,9.74
2023-03-21T01:33:34.461Z,9.68
2023-03-21T01:38:36.541Z,9.65
2023-03-21T01:43:39.839Z,9.62
2023-03-21T01:48:43.842Z,9.45
2023-03-21T01:53:47.191Z,9.25
2023-03-21T01:58:50.512Z,9.27
2023-03-21T02:04:04.998Z,8.91
2023-03-21T02:09:30.999Z,8.67
2023-03-21T02:14:35.845Z,8.57
2023-03-21T02:20:30.615Z,8.71
2023-03-21T02:26:04.099Z,8.84
2023-03-21T02:31:26.892Z,8.65
2023-03-21T02:37:08.046Z,8.31
2023-03-21T02:42:17.494Z,8.55
2023-03-21T02:52:48.126Z,8.58
2023-03-21T02:57:52.677Z,8.23
2023-03-21T03:03:07.846Z,8.48
2023-03-21T03:08:41.404Z,8.29
2023-03-21T03:14:15.585Z,8.09
2023-03-21T03:19:32.761Z,8.53
2023-03-21T03:24:56.590Z,8.75
2023-03-21T03:30:01.901Z,8.85
2023-03-21T03:35:05.527Z,8.91
2023-03-21T03:40:13.538Z,8.89
2023-03-21T03:45:29.860Z,8.90
2023-03-21T03:50:45.635Z,8.87
2023-03-21T03:55:52.241Z,8.88
2023-03-21T04:00:56.760Z,8.88
2023-03-21T04:05:58.625Z,8.90
2023-03-21T04:11:02.625Z,8.87
2023-03-21T04:16:06.998Z,8.84
2023-03-21T04:21:13.198Z,8.91
2023-03-21T04:26:15.738Z,8.86
2023-03-21T04:31:36.583Z,8.85
2023-03-21T04:36:47.282Z,8.82
2023-03-21T04:41:49.985Z,8.84
2023-03-21T04:46:54.459Z,8.64
2023-03-21T04:51:56.152Z,8.67
2023-03-21T04:56:58.416Z,8.70
2023-03-21T05:02:02.159Z,8.68
2023-03-21T05:07:05.611Z,8.18
2023-03-21T05:12:07.792Z,8.26
2023-03-21T05:17:10.626Z,8.43
2023-03-21T05:22:14.243Z,8.29
2023-03-21T05:27:34.038Z,8.29
2023-03-21T05:32:36.810Z,8.24
2023-03-21T05:37:39.424Z,8.13
2023-03-21T05:42:42.116Z,8.19
2023-03-21T05:47:52.000Z,8.12
2023-03-21T05:52:57.139Z,8.13
2023-03-21T05:57:59.262Z,8.28
2023-03-21T06:03:03.764Z,8.47
2023-03-21T06:08:32.166Z,8.47
2023-03-21T06:13:41.424Z,8.53
2023-03-21T06:18:43.084Z,8.26
2023-03-21T06:24:19.812Z,8.03
2023-03-21T06:29:21.760Z,8.19
2023-03-21T06:34:24.785Z,8.27
2023-03-21T06:39:27.084Z,8.21
2023-03-21T06:44:28.734Z,8.42
2023-03-21T06:49:36.924Z,8.42
2023-03-21T06:54:43.253Z,8.34
2023-03-21T06:59:47.521Z,8.46
2023-03-21T07:04:55.192Z,8.59
2023-03-21T07:10:04.158Z,8.60
2023-03-21T07:15:14.978Z,8.62
2023-03-21T07:20:22.594Z,8.75
2023-03-21T07:25:27.646Z,8.88
2023-03-21T07:30:30.277Z,9.08
2023-03-21T07:35:31.843Z,9.15
2023-03-21T07:40:33.736Z,9.14
2023-03-21T07:45:35.355Z,9.20
2023-03-21T07:50:42.186Z,9.21
2023-03-21T07:55:43.737Z,9.29
2023-03-21T08:00:45.250Z,9.38
2023-03-21T08:06:06.229Z,9.44
2023-03-21T08:11:17.474Z,9.55
2023-03-21T08:16:23.458Z,9.52
2023-03-21T08:21:25.469Z,9.60
2023-03-21T08:26:26.997Z,9.61
2023-03-21T08:31:28.471Z,9.77
2023-03-21T08:36:30.498Z,9.74
2023-03-21T08:41:33.230Z,9.87
2023-03-21T08:46:34.770Z,9.79
2023-03-21T08:51:37.590Z,9.80
2023-03-21T08:56:39.070Z,9.90
2023-03-21T09:01:41.209Z,9.94
2023-03-21T09:06:45.581Z,10.07
2023-03-21T09:11:47.232Z,10.21
2023-03-21T09:16:48.624Z,10.27
2023-03-21T09:21:50.651Z,10.26
2023-03-21T09:26:52.121Z,10.19
2023-03-21T09:31:54.366Z,10.26
2023-03-21T09:36:56.987Z,10.45
2023-03-21T09:42:07.596Z,10.74
2023-03-21T09:47:21.603Z,10.82
2023-03-21T09:52:29.784Z,11.06
2023-03-21T09:57:42.027Z,11.16
2023-03-21T10:02:51.833Z,11.38
2023-03-21T10:08:00.026Z,11.48
2023-03-21T10:13:01.522Z,11.55
2023-03-21T10:18:13.182Z,11.55
2023-03-21T10:23:19.208Z,11.67
2023-03-21T10:28:24.724Z,11.79
2023-03-21T10:33:43.629Z,11.98
2023-03-21T10:38:52.785Z,11.99
2023-03-21T10:44:16.882Z,12.11
2023-03-21T10:49:19.001Z,12.33
2023-03-21T10:54:25.219Z,12.24
2023-03-21T10:59:35.360Z,12.39
2023-03-21T11:04:36.969Z,12.34
2023-03-21T11:09:53.808Z,12.32
2023-03-21T11:14:56.122Z,12.58
2023-03-21T11:20:09.026Z,12.68
2023-03-21T11:25:25.211Z,12.89
2023-03-21T11:30:28.109Z,12.74
2023-03-21T11:35:36.790Z,12.75
2023-03-21T11:40:52.537Z,13.12
2023-03-21T11:46:06.954Z,13.05
2023-03-21T11:51:32.680Z,13.31
2023-03-21T11:57:33.064Z,13.22
2023-03-21T12:02:57.619Z,13.93
2023-03-21T12:08:22.385Z,13.60
2023-03-21T12:14:19.289Z,13.42
2023-03-21T12:19:42.800Z,13.70
2023-03-21T12:24:58.768Z,14.13
2023-03-21T12:30:25.840Z,13.92
2023-03-21T12:35:39.379Z,14.29
2023-03-21T12:41:05.664Z,14.72
2023-03-21T12:46:23.871Z,14.56
2023-03-21T12:51:35.933Z,14.47
2023-03-21T12:56:49.666Z,14.79
2023-03-21T13:01:55.375Z,14.83
2023-03-21T13:07:01.879Z,14.86
2023-03-21T13:12:27.925Z,15.00
2023-03-21T13:17:40.469Z,15.38
2023-03-21T13:22:41.914Z,15.20
2023-03-21T13:27:46.130Z,15.50
2023-03-21T13:32:50.824Z,15.33
2023-03-21T13:37:56.851Z,15.60
2023-03-21T13:43:00.253Z,15.93
2023-03-21T13:48:25.556Z,15.80
2023-03-21T13:53:32.387Z,15.54
2023-03-21T13:58:33.801Z,15.08
2023-03-21T14:03:35.448Z,15.34
2023-03-21T14:08:41.302Z,15.78
2023-03-21T14:13:50.728Z,15.35
2023-03-21T14:18:56.784Z,16.12
2023-03-21T14:24:04.196Z,15.22
2023-03-21T14:29:23.032Z,15.35
2023-03-21T14:34:29.516Z,15.89
2023-03-21T14:39:33.159Z,16.33
2023-03-21T14:44:53.360Z,15.80
2023-03-21T14:49:57.462Z,15.64
2023-03-21T14:55:00.735Z,15.50
2023-03-21T15:00:12.690Z,15.21
2023-03-21T15:05:29.166Z,15.41
2023-03-21T15:10:31.768Z,15.57
2023-03-21T15:15:33.339Z,15.94
2023-03-21T15:20:37.718Z,15.15
2023-03-21T15:25:39.773Z,15.18
2023-03-21T15:30:49.404Z,15.55
2023-03-21T15:35:55.531Z,15.93
2023-03-21T15:41:24.305Z,15.08
2023-03-21T15:46:42.255Z,15.22
2023-03-21T15:51:51.341Z,15.71
2023-03-21T15:56:55.094Z,15.77
2023-03-21T16:01:56.823Z,15.64
2023-03-21T16:07:04.512Z,16.36
2023-03-21T16:12:11.551Z,16.28
2023-03-21T16:17:28.039Z,16.45
2023-03-21T16:22:30.347Z,16.40
2023-03-21T16:27:31.822Z,15.94
2023-03-21T16:32:34.120Z,16.35
2023-03-21T16:37:35.682Z,16.32
2023-03-21T16:42:37.139Z,15.76
2023-03-21T16:47:38.855Z,15.79
2023-03-21T16:52:40.345Z,15.53
2023-03-21T16:57:43.103Z,15.69
2023-03-21T17:02:44.595Z,15.68
2023-03-21T17:07:46.969Z,15.50
2023-03-21T17:12:49.134Z,15.54
2023-03-21T17:17:50.584Z,15.55
2023-03-21T17:22:52.192Z,15.39
2023-03-21T17:27:54.144Z,15.28
2023-03-21T17:32:55.723Z,15.17
2023-03-21T17:37:58.464Z,14.88
2023-03-21T17:43:01.318Z,14.89
2023-03-21T17:48:02.923Z,14.78
2023-03-21T17:53:05.575Z,14.76
2023-03-21T17:58:07.068Z,14.79
2023-03-21T18:03:08.527Z,14.77
2023-03-21T18:08:12.529Z,14.82
2023-03-21T18:13:14.367Z,14.57
2023-03-21T18:18:16.467Z,14.40
2023-03-21T18:23:19.114Z,14.34
2023-03-21T18:28:21.393Z,14.23
2023-03-21T18:33:23.137Z,13.74
2023-03-21T18:38:24.887Z,13.97
2023-03-21T18:48:49.232Z,14.34
2023-03-21T18:53:51.449Z,13.95
2023-03-21T18:58:53.310Z,14.21
2023-03-21T19:04:19.990Z,13.98
2023-03-21T19:09:29.501Z,13.75
2023-03-21T19:14:33.441Z,13.92
2023-03-21T19:19:35.126Z,13.95
2023-03-21T19:24:36.740Z,14.00
2023-03-21T19:29:38.208Z,13.57
2023-03-21T19:34:39.655Z,13.73
2023-03-21T19:39:41.137Z,13.66
2023-03-21T19:44:42.678Z,13.54
2023-03-21T19:50:32.973Z,13.29
2023-03-21T19:55:06.020Z,12.85
2023-03-21T20:00:11.199Z,12.81
2023-03-21T20:05:14.416Z,12.53
2023-03-21T20:10:15.868Z,12.49
2023-03-21T20:15:21.342Z,12.51
2023-03-21T20:20:23.438Z,12.51
2023-03-21T20:25:25.080Z,12.55
2023-03-21T20:30:26.539Z,12.58
2023-03-21T20:36:13.880Z,12.51
2023-03-21T20:40:49.560Z,12.63
2023-03-21T20:45:51.080Z,12.67
2023-03-21T20:50:58.800Z,12.55
2023-03-21T20:56:03.772Z,12.70
2023-03-21T21:01:10.596Z,12.60
2023-03-21T21:06:14.734Z,12.67
2023-03-21T21:12:03.084Z,12.65
2023-03-21T21:16:39.899Z,12.52
2023-03-21T21:21:41.815Z,12.39
2023-03-21T21:26:46.210Z,12.42
2023-03-21T21:31:49.729Z,12.50
2023-03-21T21:36:51.369Z,12.37
2023-03-21T21:41:52.960Z,12.33
2023-03-21T21:46:54.504Z,12.34
2023-03-21T21:51:56.347Z,12.31
2023-03-21T21:56:58.005Z,12.36
2023-03-21T22:02:00.609Z,12.23
2023-03-21T22:07:02.395Z,12.40
2023-03-21T22:12:03.988Z,12.25
2023-03-21T22:17:05.441Z,12.28
2023-03-21T22:22:07.120Z,12.30
2023-03-21T22:27:08.560Z,12.03
2023-03-21T22:32:10.214Z,11.95
2023-03-21T22:37:13.944Z,12.19
2023-03-21T22:42:15.463Z,12.27
2023-03-21T22:47:16.927Z,12.27
2023-03-21T22:52:18.475Z,12.14
2023-03-21T22:57:22.794Z,12.24
2023-03-21T23:02:24.242Z,12.11
2023-03-21T23:07:25.734Z,12.09
2023-03-21T23:12:27.175Z,12.20
2023-03-21T23:17:28.630Z,12.13
2023-03-21T23:22:34.396Z,12.09
2023-03-21T23:27:35.845Z,12.11
2023-03-21T23:32:37.287Z,12.16
2023-03-21T23:37:42.331Z,12.16
2023-03-21T23:42:43.825Z,12.10
2023-03-21T23:47:45.288Z,11.53
2023-03-21T23:52:46.944Z,11.53
2023-03-21T23:57:49.737Z,11.80
